Time;durP1;ratioP1;P1;durP2;ratioP2;P2;SDS_P1;SDS_P2;PMS_P1;PMS_P2;Temp;Humidity;BMP_temperature;BMP_pressure;BME280_temperature;BME280_humidity;BME280_pressure;Samples;Min_cycle;Max_cycle;Signal;HPM_P1;HPM_P2
2023/11/14 00:00:28;;;;;;;14.50;5.90;;;;;;;-147.86;100.00;48997.18;105874;1257;60535;-42
2023/11/14 00:02:55;;;;;;;10.20;6.00;;;;;;;-147.86;100.00;48981.10;105825;1253;60584;-47
2023/11/14 00:05:22;;;;;;;11.10;5.30;;;;;;;-147.86;100.00;48986.20;105852;1255;73799;-47
2023/11/14 00:07:50;;;;;;;7.60;5.30;;;;;;;-147.86;100.00;48968.94;105900;1257;65489;-46
2023/11/14 00:10:17;;;;;;;10.30;5.60;;;;;;;-147.86;100.00;48948.16;105851;1259;72621;-43
2023/11/14 00:12:44;;;;;;;7.60;5.60;;;;;;;-147.86;100.00;48961.88;105832;1254;60600;-46
2023/11/14 00:15:11;;;;;;;7.30;5.10;;;;;;;-147.86;100.00;48933.65;105874;1254;60415;-47
2023/11/14 00:17:41;;;;;;;9.40;5.40;;;;;;;-147.86;100.00;48936.00;105844;1260;73663;-48
2023/11/14 00:20:09;;;;;;;7.70;5.50;;;;;;;-147.86;100.00;48941.88;105685;1257;65363;-44
2023/11/14 00:22:38;;;;;;;11.70;6.00;;;;;;;-147.86;100.00;48922.28;105626;1254;72587;-44
2023/11/14 00:25:05;;;;;;;11.80;6.30;;;;;;;-147.86;100.00;48940.31;105710;1254;60445;-46
2023/11/14 00:27:32;;;;;;;10.70;6.30;;;;;;;-147.86;100.00;48939.92;105877;1255;60437;-50
2023/11/14 00:30:00;;;;;;;10.10;6.20;;;;;;;-147.86;100.00;48918.74;105556;1259;370139;-49
2023/11/14 00:35:15;;;;;;;15.80;7.20;;;;;;;-147.86;100.00;48844.24;102440;1292;601409;-42
2023/11/14 00:37:42;;;;;;;6.20;4.90;;;;;;;-147.86;100.00;48913.26;105107;1265;60344;-44
2023/11/14 00:40:11;;;;;;;8.10;5.40;;;;;;;-147.86;100.00;48911.69;104931;1267;60313;-47
2023/11/14 00:42:37;;;;;;;11.50;6.40;;;;;;;-147.86;100.00;48911.30;105143;1264;72017;-45
2023/11/14 00:45:05;;;;;;;9.00;5.60;;;;;;;-147.86;100.00;48938.36;105151;1267;65396;-44
2023/11/14 00:47:33;;;;;;;8.90;6.00;;;;;;;-147.86;100.00;48951.68;105053;1266;241734;-42
2023/11/14 00:50:01;;;;;;;7.10;5.50;;;;;;;-147.86;100.00;48988.16;105278;1265;62009;-42
2023/11/14 00:52:29;;;;;;;8.40;5.60;;;;;;;-147.86;100.00;49008.16;105237;1261;60291;-44
2023/11/14 00:54:56;;;;;;;10.40;6.10;;;;;;;-147.86;100.00;49016.00;105274;1261;72227;-44
2023/11/14 00:57:22;;;;;;;14.60;6.20;;;;;;;-147.86;100.00;49025.41;105281;1264;65384;-44
2023/11/14 00:59:49;;;;;;;11.30;5.80;;;;;;;-147.86;100.00;49041.88;105264;1260;72620;-43
2023/11/14 01:02:16;;;;;;;9.00;5.90;;;;;;;-147.86;100.00;49063.84;105247;1264;61101;-46
2023/11/14 01:04:43;;;;;;;8.80;5.60;;;;;;;-147.86;100.00;49068.94;105303;1261;60172;-45
2023/11/14 01:07:11;;;;;;;7.50;6.10;;;;;;;-147.86;100.00;49105.02;105249;1264;73088;-46
2023/11/14 01:09:38;;;;;;;10.80;5.80;;;;;;;-147.86;100.00;49124.63;105258;1264;64847;-41
2023/11/14 01:12:05;;;;;;;17.50;6.00;;;;;;;-147.86;100.00;49139.14;105196;1260;72728;-42
2023/11/14 01:14:33;;;;;;;10.30;6.00;;;;;;;-147.86;100.00;49167.77;105223;1267;60711;-44
2023/11/14 01:17:01;;;;;;;7.80;5.40;;;;;;;-147.86;100.00;49179.53;105323;1261;59650;-46
2023/11/14 01:19:28;;;;;;;8.90;5.60;;;;;;;-147.86;100.00;49192.86;105235;1261;73002;-43
2023/11/14 01:21:55;;;;;;;7.80;5.80;;;;;;;-147.86;100.00;49183.45;105247;1264;65350;-43
2023/11/14 01:24:22;;;;;;;15.50;5.90;;;;;;;-147.86;100.00;49201.10;105275;1261;72535;-45
2023/11/14 01:26:49;;;;;;;8.50;5.70;;;;;;;-147.86;100.00;49225.02;105250;1264;60313;-43
2023/11/14 01:29:16;;;;;;;10.00;5.60;;;;;;;-147.86;100.00;49249.73;105244;1260;60275;-45
2023/11/14 01:31:43;;;;;;;10.30;6.50;;;;;;;-147.86;100.00;49247.38;105231;1260;73353;-42
2023/11/14 01:34:10;;;;;;;8.90;6.20;;;;;;;-147.86;100.00;49262.28;105218;1264;65686;-45
2023/11/14 01:36:38;;;;;;;10.60;6.70;;;;;;;-147.86;100.00;49277.57;105235;1261;72632;-43
2023/11/14 01:39:06;;;;;;;11.50;8.00;;;;;;;-147.86;100.00;49306.59;105284;1261;60035;-45
2023/11/14 01:41:33;;;;;;;14.30;7.40;;;;;;;-147.86;100.00;49317.97;105303;1260;60150;-46
2023/11/14 01:44:00;;;;;;;13.90;9.30;;;;;;;-147.86;100.00;49338.75;105238;1260;74537;-41
2023/11/14 01:46:27;;;;;;;12.30;8.70;;;;;;;-147.86;100.00;49347.38;105277;1264;64387;-44
2023/11/14 01:48:54;;;;;;;13.00;8.30;;;;;;;-147.86;100.00;49379.15;105278;1261;72451;-43
2023/11/14 01:51:23;;;;;;;14.10;9.10;;;;;;;-147.86;100.00;49418.37;105148;1267;60250;-45
2023/11/14 01:53:50;;;;;;;14.20;9.00;;;;;;;-147.86;100.00;49420.72;105284;1260;60114;-45
2023/11/14 01:56:18;;;;;;;15.70;8.50;;;;;;;-147.86;100.00;49450.92;105235;1264;72056;-42
2023/11/14 01:58:45;;;;;;;14.50;9.50;;;;;;;-147.86;100.00;49481.51;105226;1267;65573;-44
2023/11/14 02:01:13;;;;;;;12.70;9.50;;;;;;;-147.86;100.00;49487.79;105154;1263;72491;-43
2023/11/14 02:03:40;;;;;;;12.70;8.90;;;;;;;-147.86;100.00;49521.52;105191;1264;60124;-42
2023/11/14 02:06:08;;;;;;;14.20;9.50;;;;;;;-147.86;100.00;49543.87;105107;1260;60181;-48
2023/11/14 02:08:35;;;;;;;13.60;9.00;;;;;;;-147.86;100.00;49575.25;105250;1261;71561;-44
2023/11/14 02:11:02;;;;;;;13.70;9.30;;;;;;;-147.86;100.00;49584.27;105271;1263;66948;-43
2023/11/14 02:13:30;;;;;;;12.60;8.80;;;;;;;-147.86;100.00;49589.37;105249;1260;72442;-47
2023/11/14 02:15:57;;;;;;;14.60;9.80;;;;;;;-147.86;100.00;49599.18;105195;1266;60042;-43
2023/11/14 02:18:25;;;;;;;14.40;9.40;;;;;;;-147.86;100.00;49636.83;105300;1260;60098;-42
2023/11/14 02:20:52;;;;;;;17.10;8.60;;;;;;;-147.86;100.00;49634.48;105216;1266;72860;-44
2023/11/14 02:23:18;;;;;;;13.20;9.40;;;;;;;-147.86;100.00;49671.34;105284;1263;65510;-46
2023/11/14 02:25:45;;;;;;;14.70;9.60;;;;;;;-147.86;100.00;49692.52;105253;1264;72778;-44
2023/11/14 02:28:13;;;;;;;14.00;9.00;;;;;;;-147.86;100.00;49738.41;105163;1266;61988;-41
2023/11/14 02:30:40;;;;;;;15.70;9.70;;;;;;;-147.86;100.00;49765.87;105646;1257;61355;-43
2023/11/14 02:33:08;;;;;;;15.80;8.90;;;;;;;-147.86;100.00;49796.85;105662;1259;73048;-44
2023/11/14 02:35:35;;;;;;;17.20;9.90;;;;;;;-147.86;100.00;49830.59;105632;1258;65367;-42
2023/11/14 02:38:03;;;;;;;15.40;9.50;;;;;;;-147.86;100.00;49851.38;105654;1255;72712;-44
2023/11/14 02:40:30;;;;;;;18.60;9.10;;;;;;;-147.86;100.00;49894.52;105625;1256;62002;-44
2023/11/14 02:42:58;;;;;;;15.70;9.00;;;;;;;-147.86;100.00;49900.41;105624;1254;60295;-42
2023/11/14 02:45:26;;;;;;;15.90;9.00;;;;;;;-147.86;100.00;49931.78;105654;1254;73078;-46
2023/11/14 02:47:54;;;;;;;14.50;8.20;;;;;;;-147.86;100.00;49925.51;105682;1259;65440;-42
2023/11/14 02:50:53;;;;;;;14.90;8.90;;;;;;;-147.86;100.00;49955.71;105606;1259;72533;-41
2023/11/14 02:53:21;;;;;;;15.50;9.50;;;;;;;-147.86;100.00;49958.85;105652;1258;61049;-44
2023/11/14 02:55:48;;;;;;;15.40;9.80;;;;;;;-147.86;100.00;49974.93;105644;1254;60285;-42
2023/11/14 02:58:15;;;;;;;15.50;9.40;;;;;;;-147.86;100.00;49983.17;105653;1259;73501;-43
2023/11/14 03:00:48;;;;;;;16.60;8.80;;;;;;;-147.86;100.00;49992.19;105657;1258;65488;-45
2023/11/14 03:03:16;;;;;;;17.50;9.30;;;;;;;-147.86;100.00;50019.25;105694;1258;71583;-46
2023/11/14 03:05:43;;;;;;;14.40;9.40;;;;;;;-147.86;100.00;50029.06;105633;1254;59986;-43
2023/11/14 03:08:11;;;;;;;13.30;8.90;;;;;;;-147.86;100.00;50031.41;105639;1254;60297;-45
2023/11/14 03:10:38;;;;;;;15.90;9.00;;;;;;;-147.86;100.00;50036.13;105597;1254;71618;-45
2023/11/14 03:13:08;;;;;;;13.10;9.10;;;;;;;-147.86;100.00;50070.25;105683;1255;65522;-43
2023/11/14 03:15:36;;;;;;;14.20;9.10;;;;;;;-147.86;100.00;50065.93;105603;1254;72655;-45
2023/11/14 03:18:04;;;;;;;15.00;9.20;;;;;;;-147.86;100.00;50078.48;105607;1254;60964;-45
2023/11/14 03:20:32;;;;;;;16.80;9.90;;;;;;;-147.86;100.00;50076.52;105551;1255;60265;-42
2023/11/14 03:23:02;;;;;;;14.40;9.60;;;;;;;-147.86;100.00;50097.31;105412;1254;71588;-44
2023/11/14 03:25:30;;;;;;;21.60;9.70;;;;;;;-147.86;100.00;50118.89;105460;1256;65467;-44
2023/11/14 03:27:58;;;;;;;13.80;9.20;;;;;;;-147.86;100.00;50119.28;105510;1257;72536;-43
2023/11/14 03:30:26;;;;;;;13.00;9.20;;;;;;;-147.86;100.00;50125.16;105620;1254;60300;-46
2023/11/14 03:32:53;;;;;;;15.30;9.40;;;;;;;-147.86;100.00;50147.13;105638;1254;60776;-45
2023/11/14 03:35:20;;;;;;;17.30;9.60;;;;;;;-147.86;100.00;50154.98;105695;1254;73038;-46
2023/11/14 03:37:47;;;;;;;18.30;9.70;;;;;;;-147.86;100.00;50145.57;105675;1259;65366;-45
2023/11/14 03:40:14;;;;;;;14.60;10.00;;;;;;;-147.86;100.00;50169.10;105721;1254;72649;-47
2023/11/14 03:42:41;;;;;;;18.50;10.20;;;;;;;-147.86;100.00;50166.35;105635;1258;60282;-44
2023/11/14 03:45:08;;;;;;;15.30;9.30;;;;;;;-147.86;100.00;50164.00;105666;1254;60159;-46
2023/11/14 03:47:36;;;;;;;22.70;10.30;;;;;;;-147.86;100.00;50194.21;105669;1254;72849;-42
2023/11/14 03:50:07;;;;;;;14.60;9.40;;;;;;;-147.86;100.00;50198.91;105685;1258;65489;-40
2023/11/14 03:52:34;;;;;;;12.70;9.60;;;;;;;-147.86;100.00;50198.91;105617;1254;72596;-44
2023/11/14 03:55:02;;;;;;;14.90;9.50;;;;;;;-147.86;100.00;50214.60;105644;1258;60357;-42
2023/11/14 03:57:30;;;;;;;16.40;9.60;;;;;;;-147.86;100.00;50212.25;105704;1259;59635;-43
2023/11/14 03:59:57;;;;;;;15.00;10.10;;;;;;;-147.86;100.00;50236.96;105642;1258;73041;-42
2023/11/14 04:02:26;;;;;;;15.80;9.40;;;;;;;-147.86;100.00;50255.01;105625;1259;65447;-43
2023/11/14 04:04:54;;;;;;;16.00;9.70;;;;;;;-147.86;100.00;50275.40;105630;1257;71242;-44
2023/11/14 04:07:21;;;;;;;14.40;9.70;;;;;;;-147.86;100.00;50275.01;105750;1254;61981;-43
2023/11/14 04:09:48;;;;;;;13.70;8.70;;;;;;;-147.86;100.00;50275.01;105635;1254;60098;-43
2023/11/14 04:12:15;;;;;;;15.70;8.70;;;;;;;-147.86;100.00;50300.90;105641;1258;73383;-45
2023/11/14 04:14:42;;;;;;;15.00;8.20;;;;;;;-147.86;100.00;50288.35;105672;1258;65465;-45
2023/11/14 04:17:09;;;;;;;16.00;9.90;;;;;;;-147.86;100.00;50290.31;105649;1254;72672;-44
2023/11/14 04:19:36;;;;;;;15.30;9.50;;;;;;;-147.86;100.00;50299.73;105583;1260;61155;-46
2023/11/14 04:22:03;;;;;;;13.90;9.40;;;;;;;-147.86;100.00;50300.90;105755;1254;60260;-44
2023/11/14 04:24:33;;;;;;;16.80;9.10;;;;;;;-147.86;100.00;50307.18;105671;1255;71909;-45
2023/11/14 04:27:00;;;;;;;15.40;9.50;;;;;;;-147.86;100.00;50327.19;105666;1256;65538;-46
2023/11/14 04:29:27;;;;;;;14.80;9.00;;;;;;;-147.86;100.00;50315.81;105669;1254;72702;-43
2023/11/14 04:31:54;;;;;;;16.40;9.70;;;;;;;-147.86;100.00;50307.57;105585;1260;61174;-44
2023/11/14 04:34:21;;;;;;;20.80;10.40;;;;;;;-147.86;100.00;50315.02;105637;1259;59548;-45
2023/11/14 04:36:48;;;;;;;15.50;9.80;;;;;;;-147.86;100.00;50327.58;105666;1258;73047;-44
2023/11/14 04:39:15;;;;;;;20.80;10.00;;;;;;;-147.86;100.00;50326.79;105688;1258;66935;-42
2023/11/14 04:41:42;;;;;;;12.80;9.10;;;;;;;-147.86;100.00;50320.13;105597;1260;72663;-42
2023/11/14 04:44:11;;;;;;;15.90;9.80;;;;;;;-147.86;100.00;50330.32;105608;1254;61904;-40
2023/11/14 04:46:42;;;;;;;18.40;9.50;;;;;;;-147.86;100.00;50322.09;105686;1254;60412;-47
2023/11/14 04:49:11;;;;;;;15.80;9.10;;;;;;;-147.86;100.00;50309.14;105586;1260;73635;-45
2023/11/14 04:51:38;;;;;;;14.70;9.70;;;;;;;-147.86;100.00;50321.30;105728;1256;65463;-45
2023/11/14 04:54:05;;;;;;;13.00;8.90;;;;;;;-147.86;100.00;50313.46;105401;1254;71625;-45
2023/11/14 04:56:31;;;;;;;15.90;9.60;;;;;;;-147.86;100.00;50314.63;105453;1256;61010;-44
2023/11/14 04:58:58;;;;;;;14.00;9.00;;;;;;;-147.86;100.00;50326.01;105687;1254;60435;-47
2023/11/14 05:01:25;;;;;;;12.70;8.80;;;;;;;-147.86;100.00;50327.18;105685;1258;73785;-44
2023/11/14 05:03:52;;;;;;;13.80;8.40;;;;;;;-147.86;100.00;50321.70;105654;1258;65520;-46
2023/11/14 05:06:19;;;;;;;12.10;9.10;;;;;;;-147.86;100.00;50345.62;105670;1254;72798;-44
2023/11/14 05:08:46;;;;;;;12.80;8.50;;;;;;;-147.86;100.00;50324.83;105652;1258;61041;-45
2023/11/14 05:11:14;;;;;;;13.90;8.50;;;;;;;-147.86;100.00;50316.20;105666;1254;60523;-44
2023/11/14 05:13:40;;;;;;;14.80;8.70;;;;;;;-147.86;100.00;50322.09;105651;1256;74288;-43
2023/11/14 05:16:08;;;;;;;14.20;9.10;;;;;;;-147.86;100.00;50319.73;105663;1258;65419;-45
2023/11/14 05:18:48;;;;;;;12.30;7.80;;;;;;;-147.86;100.00;50350.72;105658;1254;72658;-44
2023/11/14 05:21:15;;;;;;;16.00;8.70;;;;;;;-147.86;100.00;50346.80;105690;1259;60411;-45
2023/11/14 05:23:42;;;;;;;14.20;9.20;;;;;;;-147.86;100.00;50348.37;105675;1254;60531;-42
2023/11/14 05:26:08;;;;;;;13.40;7.90;;;;;;;-147.86;100.00;50342.88;105621;1254;73793;-45
2023/11/14 05:28:38;;;;;;;10.40;8.60;;;;;;;-147.86;100.00;50366.80;105638;1258;65373;-44
2023/11/14 05:31:07;;;;;;;11.30;7.50;;;;;;;-147.86;100.00;50351.51;105593;1254;72624;-41
2023/11/14 05:33:34;;;;;;;13.30;8.30;;;;;;;-147.86;100.00;50360.92;105660;1259;60867;-43
2023/11/14 05:36:01;;;;;;;11.80;7.90;;;;;;;-147.86;100.00;50352.29;105639;1254;60540;-44
2023/11/14 05:38:29;;;;;;;9.70;7.40;;;;;;;-147.86;100.00;50359.35;105677;1258;73849;-44
2023/11/14 05:40:56;;;;;;;13.60;7.40;;;;;;;-147.86;100.00;50353.86;105625;1255;64438;-44
2023/11/14 05:43:28;;;;;;;12.40;7.20;;;;;;;-147.86;100.00;50353.86;105701;1254;72623;-45
2023/11/14 05:45:55;;;;;;;10.70;7.30;;;;;;;-147.86;100.00;50360.14;105687;1258;61814;-43
2023/11/14 05:48:23;;;;;;;12.80;7.90;;;;;;;-147.86;100.00;50371.13;105753;1254;60635;-42
2023/11/14 05:50:50;;;;;;;13.60;7.50;;;;;;;-147.86;100.00;50365.24;105704;1257;73680;-45
2023/11/14 05:53:17;;;;;;;12.50;8.40;;;;;;;-147.86;100.00;50355.43;105721;1256;65365;-43
2023/11/14 05:55:46;;;;;;;11.60;7.60;;;;;;;-147.86;100.00;50376.61;105639;1255;72611;-43
2023/11/14 05:58:12;;;;;;;11.30;8.20;;;;;;;-147.86;100.00;50371.12;105708;1255;61761;-43
2023/11/14 06:00:39;;;;;;;9.20;7.10;;;;;;;-147.86;100.00;50399.76;105650;1254;60441;-42
2023/11/14 06:03:07;;;;;;;10.20;7.10;;;;;;;-147.86;100.00;50395.44;105662;1259;73859;-43
2023/11/14 06:05:35;;;;;;;12.50;7.60;;;;;;;-147.86;100.00;50382.89;105717;1254;65503;-43
2023/11/14 06:08:02;;;;;;;11.40;8.10;;;;;;;-147.86;100.00;50384.07;105648;1254;72643;-43
2023/11/14 06:10:30;;;;;;;11.20;7.70;;;;;;;-147.86;100.00;50377.40;105649;1259;61796;-42
2023/11/14 06:12:59;;;;;;;11.30;7.60;;;;;;;-147.86;100.00;50374.65;105633;1254;60416;-45
2023/11/14 06:15:26;;;;;;;10.60;7.20;;;;;;;-147.86;100.00;50378.97;105706;1254;73813;-45
2023/11/14 06:17:53;;;;;;;10.50;6.80;;;;;;;-147.86;100.00;50402.89;105664;1254;65321;-41
2023/11/14 06:20:23;;;;;;;10.40;6.50;;;;;;;-147.86;100.00;50380.14;105726;1254;72674;-42
2023/11/14 06:22:51;;;;;;;7.80;5.90;;;;;;;-147.86;100.00;50399.37;105666;1258;61908;-43
2023/11/14 06:25:18;;;;;;;8.80;6.00;;;;;;;-147.86;100.00;50388.77;105717;1254;60454;-46
2023/11/14 06:27:45;;;;;;;9.40;5.90;;;;;;;-147.86;100.00;50381.32;105657;1254;73786;-45
2023/11/14 06:30:13;;;;;;;14.80;8.00;;;;;;;-147.86;100.00;50405.64;105657;1258;65409;-46
2023/11/14 06:32:40;;;;;;;18.00;9.20;;;;;;;-147.86;100.00;50408.00;105710;1254;72623;-44
2023/11/14 06:35:07;;;;;;;12.30;8.80;;;;;;;-147.86;100.00;50397.79;105639;1259;61020;-43
2023/11/14 06:37:35;;;;;;;9.40;7.20;;;;;;;-147.86;100.00;50415.05;105724;1254;60494;-42
2023/11/14 06:40:03;;;;;;;7.60;5.40;;;;;;;-147.86;100.00;50418.20;105663;1254;73811;-44
2023/11/14 06:42:30;;;;;;;9.40;5.90;;;;;;;-147.86;100.00;50420.95;105654;1259;65406;-45
2023/11/14 06:44:57;;;;;;;11.40;6.00;;;;;;;-147.86;100.00;50421.34;105686;1254;73162;-44
2023/11/14 06:47:24;;;;;;;10.90;5.80;;;;;;;-147.86;100.00;50437.02;105672;1256;60963;-43
2023/11/14 06:49:51;;;;;;;8.80;5.40;;;;;;;-147.86;100.00;50448.79;105627;1254;60448;-46
2023/11/14 06:52:19;;;;;;;8.90;6.30;;;;;;;-147.86;100.00;50437.02;105685;1259;73858;-46
2023/11/14 06:54:46;;;;;;;5.90;5.10;;;;;;;-147.86;100.00;50449.97;105674;1258;65490;-43
2023/11/14 06:57:12;;;;;;;10.70;5.80;;;;;;;-147.86;100.00;50469.59;105671;1255;72618;-42
2023/11/14 06:59:40;;;;;;;7.60;5.50;;;;;;;-147.86;100.00;50476.65;105684;1258;60286;-44
2023/11/14 07:02:08;;;;;;;8.70;5.20;;;;;;;-147.86;100.00;50478.21;105670;1254;60485;-46
2023/11/14 07:04:38;;;;;;;6.10;5.10;;;;;;;-147.86;100.00;50457.03;105629;1259;73840;-44
2023/11/14 07:07:06;;;;;;;7.30;5.30;;;;;;;-147.86;100.00;50468.41;105666;1259;65464;-44
2023/11/14 07:09:33;;;;;;;7.90;5.40;;;;;;;-147.86;100.00;50456.25;105697;1254;72470;-45
2023/11/14 07:11:59;;;;;;;5.80;4.70;;;;;;;-147.86;100.00;50435.07;105681;1259;60346;-43
2023/11/14 07:14:29;;;;;;;9.80;5.20;;;;;;;-147.86;100.00;50390.74;105698;1254;60533;-43
2023/11/14 07:16:56;;;;;;;7.70;5.40;;;;;;;-147.86;100.00;50342.88;105685;1258;73783;-43
2023/11/14 07:19:23;;;;;;;17.40;5.40;;;;;;;-147.86;100.00;50247.16;105701;1258;65314;-48
2023/11/14 07:21:50;;;;;;;10.20;4.90;;;;;;;-147.86;100.00;50180.87;105703;1259;72525;-42
2023/11/14 07:24:17;;;;;;;10.00;5.30;;;;;;;-147.86;100.00;50089.47;105655;1258;60469;-44
2023/11/14 07:26:44;;;;;;;8.20;5.20;;;;;;;-147.86;100.00;50006.71;105682;1259;60607;-45
2023/11/14 07:29:12;;;;;;;7.40;5.40;;;;;;;-147.86;100.00;49899.62;105630;1254;73880;-46
2023/11/14 07:31:39;;;;;;;4.60;4.20;;;;;;;-147.86;100.00;49763.91;105713;1254;65199;-44
2023/11/14 07:34:06;;;;;;;4.50;4.10;;;;;;;-147.86;100.00;49641.14;105659;1254;72668;-42
2023/11/14 07:36:34;;;;;;;5.70;4.00;;;;;;;-147.86;100.00;49487.00;105647;1254;60422;-45
2023/11/14 07:39:01;;;;;;;6.50;4.20;;;;;;;-147.86;100.00;49281.50;105674;1254;60543;-43
2023/11/14 07:41:27;;;;;;;7.00;4.70;;;;;;;-147.86;100.00;49027.37;105688;1258;73966;-44
2023/11/14 07:43:54;;;;;;;8.10;4.30;;;;;;;-147.86;100.00;48850.12;105739;1259;65482;-47
2023/11/14 07:46:22;;;;;;;7.00;3.90;;;;;;;-147.86;100.00;48737.58;105710;1254;72760;-45
2023/11/14 07:48:49;;;;;;;6.00;4.20;;;;;;;-147.86;100.00;48651.31;105681;1256;61129;-44
2023/11/14 07:51:16;;;;;;;4.50;4.10;;;;;;;-147.86;100.00;48580.73;105695;1255;60530;-43
2023/11/14 07:53:46;;;;;;;13.70;4.00;;;;;;;-147.86;100.00;48523.09;105621;1258;73634;-45
2023/11/14 07:56:14;;;;;;;6.80;4.10;;;;;;;-147.86;100.00;48500.74;105654;1259;65410;-44
2023/11/14 07:58:41;;;;;;;4.40;3.80;;;;;;;-147.86;100.00;48490.16;105649;1254;72679;-45
2023/11/14 08:01:09;;;;;;;5.80;3.90;;;;;;;-147.86;100.00;48455.65;105590;1258;60337;-45
2023/11/14 08:03:36;;;;;;;5.80;3.60;;;;;;;-147.86;100.00;48426.63;105667;1254;60654;-44
2023/11/14 08:06:04;;;;;;;8.90;4.10;;;;;;;-147.86;100.00;48400.76;105660;1256;73776;-43
2023/11/14 08:08:32;;;;;;;3.80;3.40;;;;;;;-147.86;100.00;48392.52;105665;1258;65544;-46
2023/11/14 08:11:01;;;;;;;4.40;3.40;;;;;;;-147.86;100.00;48376.84;105641;1254;72637;-46
2023/11/14 08:13:28;;;;;;;7.10;3.40;;;;;;;-147.86;100.00;48368.60;105649;1256;60358;-43
2023/11/14 08:15:55;;;;;;;3.90;3.50;;;;;;;-147.86;100.00;48347.43;105717;1254;60287;-44
2023/11/14 08:18:22;;;;;;;17.00;4.00;;;;;;;-147.86;100.00;48352.93;105666;1254;73712;-43
2023/11/14 08:20:49;;;;;;;6.90;3.50;;;;;;;-147.86;100.00;48364.30;105656;1258;65482;-43
2023/11/14 08:23:17;;;;;;;3.50;2.90;;;;;;;-147.86;100.00;48345.09;105670;1257;72633;-44
2023/11/14 08:25:44;;;;;;;9.30;3.00;;;;;;;-147.86;100.00;48369.39;105682;1258;60342;-45
2023/11/14 08:28:11;;;;;;;3.30;2.50;;;;;;;-147.86;100.00;48357.24;105707;1255;60406;-42
2023/11/14 08:30:38;;;;;;;4.50;2.60;;;;;;;-147.86;100.00;48341.55;105673;1258;73561;-44
2023/11/14 08:33:07;;;;;;;2.10;1.90;;;;;;;-147.86;100.00;48345.87;105685;1259;65527;-42
2023/11/14 08:35:34;;;;;;;2.70;2.30;;;;;;;-147.86;100.00;48336.84;105703;1257;72595;-42
2023/11/14 08:38:01;;;;;;;2.90;2.40;;;;;;;-147.86;100.00;48328.22;105657;1259;60387;-42
2023/11/14 08:40:43;;;;;;;5.50;2.30;;;;;;;-147.86;96.79;48330.57;105696;1254;60553;-45
2023/11/14 08:43:10;;;;;;;4.70;2.20;;;;;;;-147.86;88.89;48323.91;105670;1258;73822;-42
2023/11/14 08:45:38;;;;;;;2.50;2.30;;;;;;;-147.86;86.23;48310.19;105608;1258;65380;-43
2023/11/14 08:48:07;;;;;;;7.90;2.10;;;;;;;-147.86;90.55;48325.87;105614;1255;72735;-42
2023/11/14 08:50:36;;;;;;;3.00;2.40;;;;;;;-147.86;87.33;48337.24;105681;1258;60338;-45
2023/11/14 08:53:03;;;;;;;2.70;2.30;;;;;;;-147.86;89.79;48319.20;105647;1255;60405;-44
2023/11/14 08:55:30;;;;;;;3.20;2.60;;;;;;;-147.86;81.65;48302.34;105671;1258;73678;-41
2023/11/14 08:57:59;;;;;;;4.60;2.60;;;;;;;-147.86;81.01;48326.26;105705;1258;65485;-45
2023/11/14 09:00:26;;;;;;;2.60;2.40;;;;;;;-147.86;73.98;48316.85;105676;1255;72759;-42
2023/11/14 09:02:53;;;;;;;2.30;2.10;;;;;;;-147.86;68.63;48333.32;105680;1259;60446;-42
2023/11/14 09:05:20;;;;;;;2.40;2.20;;;;;;;-147.86;66.00;48345.08;105604;1258;60444;-42
2023/11/14 09:07:47;;;;;;;2.40;2.20;;;;;;;-147.86;68.97;48332.14;105634;1255;73807;-43
2023/11/14 09:10:14;;;;;;;3.40;2.10;;;;;;;-147.86;67.93;48324.70;105674;1258;65542;-44
2023/11/14 09:12:41;;;;;;;2.90;2.10;;;;;;;-147.86;64.96;48336.46;105668;1254;72604;-43
2023/11/14 09:15:09;;;;;;;11.20;1.90;;;;;;;-147.86;64.27;48304.70;105694;1258;60333;-41
2023/11/14 09:17:36;;;;;;;3.30;2.10;;;;;;;-147.86;66.58;48323.13;105715;1257;60473;-44
2023/11/14 09:20:11;;;;;;;3.60;2.10;;;;;;;-147.86;65.60;48332.53;105679;1257;72867;-43
2023/11/14 09:22:38;;;;;;;2.50;2.30;;;;;;;-147.86;67.14;48320.77;105675;1254;65353;-44
2023/11/14 09:25:08;;;;;;;3.70;2.40;;;;;;;-147.86;69.94;48314.89;105717;1254;72640;-45
2023/11/14 09:27:34;;;;;;;2.20;2.00;;;;;;;-147.86;70.41;48327.04;105645;1254;60451;-43
2023/11/14 09:30:02;;;;;;;3.00;2.30;;;;;;;-147.86;68.69;48328.62;105586;1254;60409;-46
2023/11/14 09:32:30;;;;;;;3.60;2.20;;;;;;;-147.86;68.30;48337.63;105437;1259;73749;-44
2023/11/14 09:34:57;;;;;;;3.90;2.70;;;;;;;-147.86;66.36;48322.74;105446;1259;65541;-44
2023/11/14 09:37:25;;;;;;;3.50;2.60;;;;;;;-147.86;66.66;48320.38;105704;1255;73142;-48
2023/11/14 09:39:52;;;;;;;9.30;2.30;;;;;;;-147.86;65.02;48323.13;105678;1258;61274;-46
2023/11/14 09:42:19;;;;;;;9.30;2.50;;;;;;;-147.86;64.12;48335.28;105643;1257;60434;-45
2023/11/14 09:44:46;;;;;;;8.40;2.60;;;;;;;-147.86;63.73;48333.32;105661;1259;73924;-45
2023/11/14 09:47:13;;;;;;;9.80;2.20;;;;;;;-147.86;66.37;48340.77;105697;1258;65934;-46
2023/11/14 09:49:42;;;;;;;3.00;2.30;;;;;;;-147.86;71.91;48335.68;105708;1259;71113;-44
2023/11/14 09:52:12;;;;;;;3.90;2.20;;;;;;;-147.86;74.82;48338.42;105696;1254;60451;-44
2023/11/14 09:54:39;;;;;;;3.20;2.30;;;;;;;-147.86;79.55;48351.35;105706;1254;60908;-47
2023/11/14 09:57:10;;;;;;;2.30;2.10;;;;;;;-147.86;88.86;48327.04;105629;1257;73836;-46
2023/11/14 09:59:38;;;;;;;2.90;2.40;;;;;;;-147.86;93.56;48329.01;105666;1258;65555;-46
2023/11/14 10:02:05;;;;;;;5.60;2.30;;;;;;;-147.86;97.13;48324.30;105630;1257;73212;-43
2023/11/14 10:04:32;;;;;;;5.20;2.50;;;;;;;-147.86;96.55;48338.81;105669;1258;60336;-42
2023/11/14 10:06:59;;;;;;;2.60;2.00;;;;;;;-147.86;97.15;48336.85;105729;1254;61145;-42
2023/11/14 10:09:26;;;;;;;3.40;2.80;;;;;;;-147.86;99.93;48329.39;105655;1260;73789;-45
2023/11/14 10:11:54;;;;;;;3.60;2.70;;;;;;;-147.86;100.00;48328.61;105678;1257;65336;-45
2023/11/14 10:14:23;;;;;;;2.90;2.70;;;;;;;-147.86;100.00;48336.46;105655;1256;72598;-47
2023/11/14 10:16:58;;;;;;;4.80;2.60;;;;;;;-147.86;100.00;48341.55;105622;1256;62934;-41
2023/11/14 10:19:25;;;;;;;3.60;2.60;;;;;;;-147.86;100.00;48330.57;105692;1254;60797;-44
2023/11/14 10:21:52;;;;;;;7.30;2.70;;;;;;;-147.86;100.00;48350.57;105607;1254;73731;-43
2023/11/14 10:24:19;;;;;;;4.00;3.10;;;;;;;-147.86;100.00;48334.50;105658;1259;66149;-41
2023/11/14 10:26:51;;;;;;;5.40;3.10;;;;;;;-147.86;100.00;48348.61;105666;1257;72558;-43
2023/11/14 10:29:19;;;;;;;4.10;2.90;;;;;;;-147.86;100.00;48337.24;105689;1258;60421;-43
2023/11/14 10:31:46;;;;;;;7.20;3.40;;;;;;;-147.86;100.00;48341.55;105763;1259;60423;-47
2023/11/14 10:34:42;;;;;;;5.90;3.20;;;;;;;-147.86;100.00;48357.63;105642;1258;73823;-46
2023/11/14 10:37:10;;;;;;;4.20;3.00;;;;;;;-147.86;100.00;48340.77;105560;1257;66411;-43
2023/11/14 10:39:51;;;;;;;7.30;2.70;;;;;;;-147.86;100.00;48352.14;105638;1257;73102;-43
2023/11/14 10:42:19;;;;;;;3.30;2.90;;;;;;;-147.86;100.00;48333.32;105689;1259;60348;-46
2023/11/14 10:44:59;;;;;;;9.10;3.10;;;;;;;-147.86;100.00;48345.86;105740;1256;60335;-46
2023/11/14 10:47:41;;;;;;;3.90;2.70;;;;;;;-147.86;100.00;48342.34;105683;1258;73656;-45
2023/11/14 10:50:27;;;;;;;4.10;3.10;;;;;;;-147.86;100.00;48342.34;105681;1257;65148;-47
2023/11/14 10:52:56;;;;;;;3.10;2.90;;;;;;;-147.86;100.00;48350.96;105685;1257;71241;-45
2023/11/14 10:55:24;;;;;;;3.80;2.70;;;;;;;-147.86;100.00;48356.45;105705;1257;62427;-43
2023/11/14 10:57:51;;;;;;;4.00;3.00;;;;;;;-147.86;100.00;48342.73;105700;1256;60527;-43
2023/11/14 11:00:21;;;;;;;3.40;2.60;;;;;;;-147.86;100.00;48367.43;105669;1258;73786;-42
2023/11/14 11:02:52;;;;;;;5.20;2.90;;;;;;;-147.86;100.00;48352.53;105684;1259;65388;-45
2023/11/14 11:05:28;;;;;;;6.40;2.70;;;;;;;-147.86;100.00;48363.90;105757;1259;72707;-45